createdAt,value
2017-04-23T00:00:55.157Z,0
2017-04-23T00:02:05.101Z,0
2017-04-23T00:03:14.723Z,0
2017-04-23T00:04:24.338Z,0
2017-04-23T00:05:34.259Z,0
2017-04-23T00:06:43.872Z,0
2017-04-23T00:07:54.105Z,0
2017-04-23T00:09:04.046Z,0
2017-04-23T00:10:13.662Z,0
2017-04-23T00:11:23.899Z,0
2017-04-23T00:12:34.132Z,0
2017-04-23T00:13:43.751Z,0
2017-04-23T00:14:53.987Z,0
2017-04-23T00:16:04.233Z,0
2017-04-23T00:17:14.472Z,0
2017-04-23T00:18:24.400Z,0
2017-04-23T00:19:34.320Z,0
2017-04-23T00:20:44.558Z,0
2017-04-23T00:21:54.790Z,0
2017-04-23T00:23:04.715Z,0
2017-04-23T00:24:14.330Z,0
2017-04-23T00:25:24.590Z,0
2017-04-23T00:26:34.829Z,0
2017-04-23T00:27:45.066Z,0
2017-04-23T00:28:55.305Z,0
2017-04-23T00:30:05.226Z,0
2017-04-23T00:31:15.153Z,0
2017-04-23T00:32:25.074Z,0
2017-04-23T00:33:34.995Z,0
2017-04-23T00:34:44.917Z,0
2017-04-23T00:35:54.840Z,0
2017-04-23T00:37:04.762Z,0
2017-04-23T00:38:15.007Z,0
2017-04-23T00:39:24.931Z,0
2017-04-23T00:40:35.169Z,0
2017-04-23T00:41:45.403Z,0
2017-04-23T00:42:55.014Z,0
2017-04-23T00:44:05.257Z,0
2017-04-23T00:45:15.178Z,0
2017-04-23T00:46:24.785Z,0
2017-04-23T00:47:35.030Z,0
2017-04-23T00:48:44.963Z,0
2017-04-23T00:49:55.204Z,0
2017-04-23T00:51:05.441Z,0
2017-04-23T00:52:15.676Z,0
2017-04-23T00:53:25.610Z,0
2017-04-23T00:54:35.559Z,0
2017-04-23T00:55:45.809Z,0
2017-04-23T00:56:56.048Z,0
2017-04-23T00:58:05.970Z,0
2017-04-23T00:59:15.896Z,0
2017-04-23T01:00:25.819Z,0
2017-04-23T01:01:35.749Z,0
2017-04-23T01:02:45.672Z,0
2017-04-23T01:03:55.904Z,0
2017-04-23T01:05:05.830Z,0
2017-04-23T01:06:15.755Z,0
2017-04-23T01:07:25.675Z,0
2017-04-23T01:08:35.920Z,0
2017-04-23T01:09:46.149Z,0
2017-04-23T01:10:56.385Z,0
2017-04-23T01:12:06.620Z,0
2017-04-23T01:13:16.862Z,0
2017-04-23T01:14:27.103Z,0
2017-04-23T01:15:36.707Z,0
2017-04-23T01:16:46.643Z,0
2017-04-23T01:17:56.880Z,0
2017-04-23T01:19:07.121Z,0
2017-04-23T01:20:17.043Z,0
2017-04-23T01:21:27.312Z,0
2017-04-23T01:22:37.557Z,0
2017-04-23T01:23:47.799Z,0
2017-04-23T01:24:57.768Z,0
2017-04-23T01:26:07.690Z,0
2017-04-23T01:27:17.932Z,0
2017-04-23T01:28:27.866Z,0
2017-04-23T01:29:38.102Z,0
2017-04-23T01:30:48.341Z,0
2017-04-23T01:31:58.583Z,0
2017-04-23T01:33:08.819Z,0
2017-04-23T01:34:18.425Z,0
2017-04-23T01:35:28.035Z,0
2017-04-23T01:36:38.271Z,0
2017-04-23T01:37:48.195Z,0
2017-04-23T01:38:58.429Z,0
2017-04-23T01:40:08.668Z,0
2017-04-23T01:41:18.910Z,0
2017-04-23T01:42:29.147Z,0
2017-04-23T01:43:39.093Z,0
2017-04-23T01:44:49.329Z,0
2017-04-23T01:45:58.629Z,0
2017-04-23T01:47:08.863Z,0
2017-04-23T01:48:19.091Z,0
2017-04-23T01:49:29.015Z,0
2017-04-23T01:50:39.248Z,0
2017-04-23T01:51:49.169Z,0
2017-04-23T01:52:59.096Z,0
2017-04-23T01:54:09.025Z,0
2017-04-23T01:55:19.258Z,0
2017-04-23T01:56:29.501Z,0
2017-04-23T01:57:39.741Z,0
2017-04-23T01:58:49.976Z,0
2017-04-23T02:00:00.216Z,0
2017-04-23T02:01:10.462Z,0
2017-04-23T02:02:19.445Z,0
2017-04-23T02:03:29.683Z,0
2017-04-23T02:04:39.921Z,0
2017-04-23T02:05:49.844Z,0
2017-04-23T02:07:00.083Z,0
2017-04-23T02:08:10.322Z,0
2017-04-23T02:09:20.486Z,0
2017-04-23T02:10:30.412Z,0
2017-04-23T02:11:40.658Z,0
2017-04-23T02:12:50.594Z,0
2017-04-23T02:14:00.524Z,0
2017-04-23T02:15:10.445Z,0
2017-04-23T02:16:20.053Z,0
2017-04-23T02:17:30.288Z,0
2017-04-23T02:18:40.535Z,0
2017-04-23T02:19:50.772Z,0
2017-04-23T02:21:00.384Z,0
2017-04-23T02:22:10.308Z,0
2017-04-23T02:23:19.919Z,0
2017-04-23T02:24:29.843Z,0
2017-04-23T02:25:40.084Z,0
2017-04-23T02:26:49.387Z,0
2017-04-23T02:27:59.622Z,0
2017-04-23T02:29:09.863Z,0
2017-04-23T02:30:19.783Z,0
2017-04-23T02:31:30.020Z,0
2017-04-23T02:32:40.258Z,0
2017-04-23T02:33:50.183Z,0
2017-04-23T02:35:00.421Z,0
2017-04-23T02:36:10.365Z,0
2017-04-23T02:37:20.607Z,0
2017-04-23T02:38:30.850Z,0
2017-04-23T02:39:41.083Z,0
2017-04-23T02:40:51.010Z,0
2017-04-23T02:42:00.931Z,0
2017-04-23T02:43:10.540Z,0
2017-04-23T02:44:20.159Z,0
2017-04-23T02:45:30.081Z,0
2017-04-23T02:46:39.696Z,0
2017-04-23T02:47:49.941Z,0
2017-04-23T02:48:59.898Z,0
2017-04-23T02:50:10.137Z,0
2017-04-23T02:51:20.063Z,0
2017-04-23T02:52:29.988Z,0
2017-04-23T02:53:39.828Z,0
2017-04-23T02:54:49.438Z,0
2017-04-23T02:55:59.050Z,0
2017-04-23T02:57:09.286Z,0
2017-04-23T02:58:19.536Z,0
2017-04-23T02:59:29.453Z,0
2017-04-23T03:00:39.378Z,0
2017-04-23T03:01:49.316Z,0
2017-04-23T03:02:59.242Z,0
2017-04-23T03:04:09.482Z,0
2017-04-23T03:05:19.094Z,0
2017-04-23T03:06:28.394Z,0
2017-04-23T03:07:38.651Z,0
2017-04-23T03:08:48.897Z,0
2017-04-23T03:09:58.830Z,0
2017-04-23T03:11:08.766Z,0
2017-04-23T03:12:18.690Z,0
2017-04-23T03:13:28.934Z,0
2017-04-23T03:14:39.172Z,0
2017-04-23T03:15:49.095Z,0
2017-04-23T03:16:59.329Z,0
2017-04-23T03:18:09.250Z,0
2017-04-23T03:19:19.190Z,0
2017-04-23T03:20:29.432Z,0
2017-04-23T03:21:39.045Z,0
2017-04-23T03:22:49.276Z,0
2017-04-23T03:23:59.519Z,0
2017-04-23T03:25:09.132Z,0
2017-04-23T03:26:19.057Z,0
2017-04-23T03:27:28.988Z,0
2017-04-23T03:28:38.913Z,0
2017-04-23T03:29:48.836Z,0
2017-04-23T03:30:59.072Z,0
2017-04-23T03:32:08.989Z,0
2017-04-23T03:33:18.922Z,0
2017-04-23T03:34:29.167Z,0
2017-04-23T03:35:39.400Z,0
2017-04-23T03:36:49.324Z,0
2017-04-23T03:37:59.259Z,0
2017-04-23T03:39:09.501Z,0
2017-04-23T03:40:19.110Z,0
2017-04-23T03:41:29.348Z,0
2017-04-23T03:42:39.325Z,0
2017-04-23T03:43:49.252Z,0
2017-04-23T03:44:58.870Z,0
2017-04-23T03:46:08.483Z,0
2017-04-23T03:47:18.410Z,0
2017-04-23T03:48:27.712Z,0
2017-04-23T03:49:37.948Z,0
2017-04-23T03:50:48.094Z,0
2017-04-23T03:51:57.707Z,0
2017-04-23T03:53:07.942Z,0
2017-04-23T03:54:18.181Z,0
2017-04-23T03:55:28.418Z,0
2017-04-23T03:56:38.658Z,0
2017-04-23T03:57:48.899Z,0
2017-04-23T03:58:58.823Z,0
2017-04-23T04:00:09.062Z,0
2017-04-23T04:01:18.998Z,0
2017-04-23T04:02:28.922Z,0
2017-04-23T04:03:39.191Z,0
2017-04-23T04:04:49.124Z,0
2017-04-23T04:05:59.356Z,0
2017-04-23T04:07:09.591Z,0
2017-04-23T04:08:19.839Z,0
2017-04-23T04:09:29.476Z,0
2017-04-23T04:10:39.412Z,0
2017-04-23T04:11:49.646Z,0
2017-04-23T04:12:59.576Z,0
2017-04-23T04:14:09.818Z,0
2017-04-23T04:15:19.743Z,0
2017-04-23T04:16:29.986Z,0
2017-04-23T04:17:40.233Z,0
2017-04-23T04:18:50.480Z,0
2017-04-23T04:20:00.411Z,0
2017-04-23T04:21:10.016Z,0
2017-04-23T04:22:19.939Z,0
2017-04-23T04:23:29.863Z,0
2017-04-23T04:24:39.790Z,0
2017-04-23T04:25:49.721Z,0
2017-04-23T04:26:59.648Z,0
2017-04-23T04:28:09.258Z,0
2017-04-23T04:29:19.505Z,0
2017-04-23T04:30:29.436Z,0
2017-04-23T04:31:39.689Z,0
2017-04-23T04:32:49.951Z,0
2017-04-23T04:34:00.194Z,0
2017-04-23T04:35:10.117Z,0
2017-04-23T04:36:19.730Z,0
2017-04-23T04:37:29.655Z,0
2017-04-23T04:38:39.892Z,0
2017-04-23T04:39:50.160Z,0
2017-04-23T04:41:00.400Z,0
2017-04-23T04:42:10.319Z,0
2017-04-23T04:43:20.246Z,0
2017-04-23T04:44:29.865Z,0
2017-04-23T04:45:40.097Z,0
2017-04-23T04:46:50.342Z,0
2017-04-23T04:48:00.583Z,4
2017-04-23T04:49:09.886Z,4
2017-04-23T04:50:19.502Z,0
2017-04-23T04:51:29.737Z,0
2017-04-23T04:52:39.662Z,0
2017-04-23T04:53:49.910Z,0
2017-04-23T04:55:00.160Z,0
2017-04-23T04:56:10.396Z,0
2017-04-23T04:57:20.327Z,0
2017-04-23T04:58:30.263Z,0
2017-04-23T04:59:40.499Z,0
2017-04-23T05:00:50.111Z,0
2017-04-23T05:02:00.041Z,0
2017-04-23T05:03:09.967Z,0
2017-04-23T05:04:20.210Z,4
2017-04-23T05:05:30.449Z,4
2017-04-23T05:06:40.060Z,4
2017-04-23T05:07:50.298Z,4
2017-04-23T05:09:00.247Z,4
2017-04-23T05:10:10.168Z,0
2017-04-23T05:11:20.098Z,0
2017-04-23T05:12:30.337Z,0
2017-04-23T05:13:40.298Z,0
2017-04-23T05:14:50.231Z,0
2017-04-23T05:16:00.468Z,4
2017-04-23T05:17:10.393Z,4
2017-04-23T05:18:20.632Z,0
2017-04-23T05:19:30.875Z,4
2017-04-23T05:20:41.114Z,4
2017-04-23T05:21:51.353Z,0
2017-04-23T05:23:01.271Z,0
2017-04-23T05:24:11.208Z,0
2017-04-23T05:25:21.135Z,4
2017-04-23T05:26:31.370Z,4
2017-04-23T05:27:41.306Z,4
2017-04-23T05:28:51.547Z,4
2017-04-23T05:30:01.795Z,4
2017-04-23T05:31:11.728Z,4
2017-04-23T05:32:21.977Z,4
2017-04-23T05:33:32.215Z,4
2017-04-23T05:34:42.458Z,0
2017-04-23T05:35:52.693Z,0
2017-04-23T05:37:02.938Z,0
2017-04-23T05:38:12.541Z,4
2017-04-23T05:39:22.781Z,4
2017-04-23T05:40:32.709Z,4
2017-04-23T05:41:42.955Z,4
2017-04-23T05:42:52.887Z,4
2017-04-23T05:44:03.137Z,4
2017-04-23T05:45:13.068Z,0
2017-04-23T05:46:23.303Z,0
2017-04-23T05:47:32.910Z,0
2017-04-23T05:48:42.846Z,0
2017-04-23T05:49:53.105Z,0
2017-04-23T05:51:03.348Z,0
2017-04-23T05:52:13.278Z,4
2017-04-23T05:53:23.516Z,4
2017-04-23T05:54:33.754Z,0
2017-04-23T05:55:43.683Z,4
2017-04-23T05:56:52.984Z,0
2017-04-23T05:58:02.912Z,4
2017-04-23T05:59:13.149Z,4
2017-04-23T06:00:23.382Z,0
2017-04-23T06:01:33.624Z,4
2017-04-23T06:02:43.870Z,4
2017-04-23T06:03:53.808Z,4
2017-04-23T06:05:04.054Z,4
2017-04-23T06:06:14.289Z,4
2017-04-23T06:07:24.529Z,4
2017-04-23T06:08:34.457Z,4
2017-04-23T06:09:44.698Z,0
2017-04-23T06:10:54.935Z,0
2017-04-23T06:12:05.178Z,0
2017-04-23T06:13:14.802Z,0
2017-04-23T06:14:24.418Z,0
2017-04-23T06:15:34.351Z,0
2017-04-23T06:16:44.591Z,0
2017-04-23T06:17:54.849Z,0
2017-04-23T06:19:05.085Z,4
2017-04-23T06:20:15.008Z,4
2017-04-23T06:21:24.929Z,4
2017-04-23T06:22:35.172Z,4
2017-04-23T06:23:45.415Z,0
2017-04-23T06:24:55.661Z,4
2017-04-23T06:26:05.893Z,4
2017-04-23T06:27:15.829Z,4
2017-04-23T06:28:25.757Z,4
2017-04-23T06:29:35.681Z,4
2017-04-23T06:30:45.920Z,4
2017-04-23T06:31:55.843Z,4
2017-04-23T06:33:06.082Z,4
2017-04-23T06:34:15.708Z,4
2017-04-23T06:35:25.951Z,4
2017-04-23T06:36:35.870Z,4
2017-04-23T06:37:45.794Z,4
2017-04-23T06:38:55.715Z,4
2017-04-23T06:40:05.958Z,4
2017-04-23T06:41:15.881Z,4
2017-04-23T06:42:26.118Z,0
2017-04-23T06:43:36.356Z,4
2017-04-23T06:44:46.596Z,4
2017-04-23T06:45:56.836Z,4
2017-04-23T06:47:06.454Z,4
2017-04-23T06:48:16.696Z,4
2017-04-23T06:49:26.942Z,4
2017-04-23T06:50:36.555Z,4
2017-04-23T06:51:46.785Z,4
2017-04-23T06:52:56.709Z,0
2017-04-23T06:54:06.962Z,4
2017-04-23T06:55:16.889Z,4
2017-04-23T06:56:27.147Z,4
2017-04-23T06:57:37.083Z,4
2017-04-23T06:58:47.315Z,4
2017-04-23T06:59:57.560Z,0
2017-04-23T07:01:07.800Z,4
2017-04-23T07:02:17.735Z,4
2017-04-23T07:03:27.974Z,4
2017-04-23T07:04:37.903Z,0
2017-04-23T07:05:48.141Z,4
2017-04-23T07:06:58.067Z,0
2017-04-23T07:08:08.304Z,0
2017-04-23T07:09:18.542Z,0
2017-04-23T07:10:28.465Z,4
2017-04-23T07:11:38.400Z,4
2017-04-23T07:12:48.637Z,4
2017-04-23T07:13:58.566Z,4
2017-04-23T07:15:08.182Z,4
2017-04-23T07:16:18.419Z,8
2017-04-23T07:17:28.654Z,8
2017-04-23T07:18:38.895Z,4
2017-04-23T07:19:49.131Z,8
2017-04-23T07:20:59.396Z,8
2017-04-23T07:22:09.347Z,4
2017-04-23T07:23:19.273Z,4
2017-04-23T07:24:29.514Z,8
2017-04-23T07:25:39.456Z,4
2017-04-23T07:26:49.692Z,8
2017-04-23T07:27:59.619Z,8
2017-04-23T07:29:08.919Z,8
2017-04-23T07:30:18.220Z,8
2017-04-23T07:31:28.469Z,4
2017-04-23T07:32:38.705Z,8
2017-04-23T07:33:48.648Z,8
2017-04-23T07:34:58.899Z,4
2017-04-23T07:36:09.141Z,4
2017-04-23T07:37:19.377Z,8
2017-04-23T07:38:29.322Z,8
2017-04-23T07:39:39.245Z,8
2017-04-23T07:40:49.171Z,8
2017-04-23T07:41:59.095Z,8
2017-04-23T07:43:09.023Z,12
2017-04-23T07:44:18.631Z,8
2017-04-23T07:45:28.557Z,8
2017-04-23T07:46:38.499Z,8
2017-04-23T07:47:48.736Z,8
2017-04-23T07:48:58.672Z,8
2017-04-23T07:50:08.596Z,12
2017-04-23T07:51:18.515Z,12
2017-04-23T07:52:28.130Z,16
2017-04-23T07:53:38.372Z,20
2017-04-23T07:54:48.643Z,12
2017-04-23T07:55:58.607Z,8
2017-04-23T07:57:08.223Z,8
2017-04-23T07:58:18.466Z,8
2017-04-23T07:59:28.416Z,4
2017-04-23T08:00:38.029Z,4
2017-04-23T08:01:48.282Z,8
2017-04-23T08:02:58.243Z,4
2017-04-23T08:04:07.856Z,4
2017-04-23T08:05:18.104Z,4
2017-04-23T08:06:28.352Z,4
2017-04-23T08:07:38.277Z,8
2017-04-23T08:08:48.520Z,8
2017-04-23T08:09:58.456Z,4
2017-04-23T08:11:08.690Z,4
2017-04-23T08:12:18.301Z,4
2017-04-23T08:13:28.220Z,4
2017-04-23T08:14:38.142Z,0
2017-04-23T08:15:48.377Z,4
2017-04-23T08:16:57.996Z,0
2017-04-23T08:18:07.920Z,4
2017-04-23T08:19:17.874Z,8
2017-04-23T08:20:28.127Z,4
2017-04-23T08:21:38.058Z,8
2017-04-23T08:22:47.980Z,8
2017-04-23T08:23:57.604Z,12
2017-04-23T08:25:07.540Z,28
2017-04-23T08:26:17.780Z,16
2017-04-23T08:27:27.706Z,16
2017-04-23T08:28:37.630Z,12
2017-04-23T08:29:47.554Z,16
2017-04-23T08:30:57.484Z,16
2017-04-23T08:32:07.723Z,16
2017-04-23T08:33:17.964Z,12
2017-04-23T08:34:27.891Z,16
2017-04-23T08:35:37.500Z,12
2017-04-23T08:36:47.736Z,12
2017-04-23T08:37:57.348Z,12
2017-04-23T08:39:07.589Z,12
2017-04-23T08:40:17.512Z,16
2017-04-23T08:41:27.755Z,16
2017-04-23T08:42:37.992Z,8
2017-04-23T08:43:47.925Z,8
2017-04-23T08:44:57.546Z,8
2017-04-23T08:46:07.485Z,12
2017-04-23T08:47:17.731Z,8
2017-04-23T08:48:27.668Z,12
2017-04-23T08:49:37.913Z,8
2017-04-23T08:50:48.149Z,8
2017-04-23T08:51:58.386Z,4
2017-04-23T08:53:08.625Z,4
2017-04-23T08:54:18.879Z,8
2017-04-23T08:55:28.807Z,12
2017-04-23T08:56:39.041Z,8
2017-04-23T08:57:48.656Z,8
2017-04-23T08:58:58.904Z,8
2017-04-23T09:00:09.167Z,4
2017-04-23T09:01:19.092Z,4
2017-04-23T09:02:29.335Z,4
2017-04-23T09:03:39.577Z,4
2017-04-23T09:04:49.816Z,4
2017-04-23T09:06:00.055Z,4
2017-04-23T09:07:10.292Z,0
2017-04-23T09:08:20.217Z,4
2017-04-23T09:09:30.145Z,4
2017-04-23T09:10:40.078Z,4
2017-04-23T09:11:50.003Z,4
2017-04-23T09:13:00.251Z,4
2017-04-23T09:14:10.174Z,4
2017-04-23T09:15:20.104Z,32
2017-04-23T09:16:30.342Z,28
2017-04-23T09:17:40.274Z,32
2017-04-23T09:18:50.510Z,28
2017-04-23T09:20:00.120Z,24
2017-04-23T09:21:10.049Z,28
2017-04-23T09:22:20.301Z,28
2017-04-23T09:23:30.544Z,28
2017-04-23T09:24:40.801Z,32
2017-04-23T09:25:50.753Z,32
2017-04-23T09:27:00.995Z,32
2017-04-23T09:28:10.922Z,16
2017-04-23T09:29:21.168Z,20
2017-04-23T09:30:31.097Z,28
2017-04-23T09:31:41.025Z,32
2017-04-23T09:32:51.270Z,28
2017-04-23T09:34:01.193Z,28
2017-04-23T09:35:11.113Z,16
2017-04-23T09:36:21.034Z,16
2017-04-23T09:37:31.272Z,16
2017-04-23T09:38:41.539Z,32
2017-04-23T09:39:51.464Z,16
2017-04-23T09:41:01.386Z,12
2017-04-23T09:42:11.310Z,8
2017-04-23T09:43:21.242Z,4
2017-04-23T09:44:31.177Z,4
2017-04-23T09:45:40.482Z,0
2017-04-23T09:46:50.724Z,0
2017-04-23T09:48:00.335Z,0
2017-04-23T09:49:10.566Z,4
2017-04-23T09:50:20.177Z,4
2017-04-23T09:51:30.108Z,4
2017-04-23T09:52:40.035Z,4
2017-04-23T09:53:50.289Z,8
2017-04-23T09:55:00.207Z,8
2017-04-23T09:56:10.443Z,8
2017-04-23T09:57:20.055Z,8
2017-04-23T09:58:30.303Z,8
2017-04-23T09:59:40.547Z,12
2017-04-23T10:00:50.479Z,12
2017-04-23T10:02:00.716Z,20
2017-04-23T10:03:10.960Z,16
2017-04-23T10:04:21.216Z,20
2017-04-23T10:05:31.453Z,20
2017-04-23T10:06:41.688Z,20
2017-04-23T10:07:51.307Z,16
2017-04-23T10:09:01.554Z,20
2017-04-23T10:10:11.472Z,20
2017-04-23T10:11:21.709Z,16
2017-04-23T10:12:31.949Z,20
2017-04-23T10:13:42.716Z,20
2017-04-23T10:14:52.641Z,16
2017-04-23T10:16:02.877Z,16
2017-04-23T10:17:12.178Z,16
2017-04-23T10:18:22.110Z,8
2017-04-23T10:19:32.370Z,8
2017-04-23T10:20:42.610Z,8
2017-04-23T10:21:52.846Z,8
2017-04-23T10:23:02.775Z,8
2017-04-23T10:24:13.014Z,4
2017-04-23T10:25:22.933Z,4
2017-04-23T10:26:33.172Z,4
2017-04-23T10:27:43.097Z,4
2017-04-23T10:28:53.031Z,4
2017-04-23T10:30:03.271Z,0
2017-04-23T10:31:13.199Z,0
2017-04-23T10:32:23.439Z,0
2017-04-23T10:33:33.683Z,0
2017-04-23T10:34:43.300Z,4
2017-04-23T10:35:53.532Z,4
2017-04-23T10:37:03.144Z,8
2017-04-23T10:38:13.404Z,12
2017-04-23T10:39:23.353Z,8
2017-04-23T10:40:33.596Z,8
2017-04-23T10:41:43.832Z,8
2017-04-23T10:42:53.768Z,4
2017-04-23T10:44:03.699Z,4
2017-04-23T10:45:13.945Z,4
2017-04-23T10:46:24.185Z,8
2017-04-23T10:47:34.425Z,4
2017-04-23T10:48:44.358Z,8
2017-04-23T10:49:54.288Z,4
2017-04-23T10:51:04.532Z,4
2017-04-23T10:52:14.470Z,4
2017-04-23T10:53:24.394Z,4
2017-04-23T10:54:34.632Z,4
2017-04-23T10:55:43.933Z,12
2017-04-23T10:56:53.863Z,12
2017-04-23T10:58:04.156Z,8
2017-04-23T10:59:13.768Z,12
2017-04-23T11:00:23.695Z,12
2017-04-23T11:01:33.619Z,12
2017-04-23T11:02:43.855Z,8
2017-04-23T11:03:54.100Z,4
2017-04-23T11:05:04.041Z,8
2017-04-23T11:06:13.653Z,8
2017-04-23T11:07:23.902Z,8
2017-04-23T11:08:34.146Z,4
2017-04-23T11:09:44.104Z,4
2017-04-23T11:10:54.343Z,4
2017-04-23T11:12:04.582Z,8
2017-04-23T11:13:14.826Z,8
2017-04-23T11:14:24.463Z,8
2017-04-23T11:15:34.708Z,8
2017-04-23T11:16:44.944Z,8
2017-04-23T11:17:54.872Z,8
2017-04-23T11:19:05.118Z,8
2017-04-23T11:20:15.356Z,4
2017-04-23T11:21:25.591Z,4
2017-04-23T11:22:35.533Z,4
2017-04-23T11:23:45.490Z,4
2017-04-23T11:24:55.419Z,4
2017-04-23T11:26:05.685Z,4
2017-04-23T11:27:15.928Z,4
2017-04-23T11:28:25.864Z,4
2017-04-23T11:29:36.097Z,8
2017-04-23T11:30:46.025Z,8
2017-04-23T11:31:56.264Z,12
2017-04-23T11:33:06.504Z,12
2017-04-23T11:34:16.123Z,12
2017-04-23T11:35:26.366Z,16
2017-04-23T11:36:36.616Z,16
2017-04-23T11:37:46.537Z,12
2017-04-23T11:38:56.767Z,12
2017-04-23T11:40:07.011Z,8
2017-04-23T11:41:17.257Z,8
2017-04-23T11:42:27.180Z,8
2017-04-23T11:43:36.799Z,8
2017-04-23T11:44:46.724Z,8
2017-04-23T11:45:56.969Z,4
2017-04-23T11:47:07.213Z,8
2017-04-23T11:48:17.487Z,8
2017-04-23T11:49:27.416Z,12
2017-04-23T11:50:37.341Z,12
2017-04-23T11:51:47.271Z,12
2017-04-23T11:52:56.582Z,12
2017-04-23T11:54:06.821Z,12
2017-04-23T11:55:17.061Z,12
2017-04-23T11:56:27.029Z,12
2017-04-23T11:57:37.277Z,12
2017-04-23T11:58:47.209Z,8
2017-04-23T11:59:57.135Z,8
2017-04-23T12:01:07.059Z,16
2017-04-23T12:02:16.665Z,12
2017-04-23T12:03:26.963Z,16
2017-04-23T12:04:37.224Z,16
2017-04-23T12:05:47.465Z,12
2017-04-23T12:06:57.701Z,8
2017-04-23T12:08:07.943Z,12
2017-04-23T12:09:18.188Z,12
2017-04-23T12:10:28.116Z,12
2017-04-23T12:11:38.042Z,12
2017-04-23T12:12:48.320Z,12
2017-04-23T12:13:58.276Z,12
2017-04-23T12:15:08.516Z,12
2017-04-23T12:16:18.760Z,16
2017-04-23T12:17:29.001Z,16
2017-04-23T12:18:38.932Z,12
2017-04-23T12:19:48.552Z,12
2017-04-23T12:20:58.175Z,12
2017-04-23T12:22:08.414Z,20
2017-04-23T12:23:17.714Z,8
2017-04-23T12:24:27.639Z,12
2017-04-23T12:25:37.574Z,12
2017-04-23T12:26:47.814Z,12
2017-04-23T12:27:57.429Z,16
2017-04-23T12:29:07.678Z,20
2017-04-23T12:30:17.716Z,12
2017-04-23T12:31:27.970Z,12
2017-04-23T12:32:38.213Z,16
2017-04-23T12:33:48.136Z,16
2017-04-23T12:34:58.395Z,12
2017-04-23T12:36:08.095Z,8
2017-04-23T12:37:18.082Z,8
2017-04-23T12:38:28.363Z,12
2017-04-23T12:39:38.099Z,12
2017-04-23T12:40:48.393Z,12
2017-04-23T12:41:58.387Z,12
2017-04-23T12:43:08.734Z,12
2017-04-23T12:44:18.762Z,8
2017-04-23T12:45:29.066Z,8
2017-04-23T12:46:39.383Z,8
2017-04-23T12:47:49.412Z,8
2017-04-23T12:48:59.811Z,8
2017-04-23T12:50:10.191Z,12
2017-04-23T12:51:20.032Z,20
2017-04-23T12:52:30.396Z,20
2017-04-23T12:53:40.514Z,16
2017-04-23T12:54:50.551Z,16
2017-04-23T12:56:00.925Z,20
2017-04-23T12:57:10.945Z,20
2017-04-23T12:58:21.022Z,12
2017-04-23T12:59:31.375Z,20
2017-04-23T13:00:41.697Z,16
2017-04-23T13:01:51.821Z,16
2017-04-23T13:03:02.159Z,16
2017-04-23T13:04:12.109Z,16
2017-04-23T13:05:21.483Z,12
2017-04-23T13:06:31.849Z,16
2017-04-23T13:07:41.933Z,12
2017-04-23T13:08:52.327Z,16
2017-04-23T13:10:02.346Z,16
2017-04-23T13:11:11.681Z,16
2017-04-23T13:12:21.978Z,16
2017-04-23T13:13:31.625Z,16
2017-04-23T13:14:41.922Z,16
2017-04-23T13:15:52.226Z,16
2017-04-23T13:17:02.559Z,16
2017-04-23T13:18:12.921Z,16
2017-04-23T13:19:23.216Z,20
2017-04-23T13:20:33.487Z,16
2017-04-23T13:21:43.539Z,20
2017-04-23T13:22:53.851Z,20
2017-04-23T13:24:04.120Z,20
2017-04-23T13:25:14.069Z,20
2017-04-23T13:26:24.407Z,12
2017-04-23T13:27:34.834Z,12
2017-04-23T13:28:44.879Z,12
2017-04-23T13:29:55.245Z,24
2017-04-23T13:31:05.572Z,20
2017-04-23T13:32:15.936Z,24
2017-04-23T13:33:25.950Z,24
2017-04-23T13:34:35.648Z,20
2017-04-23T13:35:46.026Z,24
2017-04-23T13:36:56.383Z,20
2017-04-23T13:38:06.669Z,20
2017-04-23T13:39:16.958Z,20
2017-04-23T13:40:27.256Z,24
2017-04-23T13:41:37.295Z,16
2017-04-23T13:42:47.671Z,20
2017-04-23T13:43:57.962Z,20
2017-04-23T13:45:08.276Z,20
2017-04-23T13:46:18.280Z,16
2017-04-23T13:47:28.546Z,8
2017-04-23T13:48:38.563Z,4
2017-04-23T13:49:48.597Z,8
2017-04-23T13:50:58.530Z,4
2017-04-23T13:52:08.558Z,4
2017-04-23T13:53:18.893Z,4
2017-04-23T13:54:28.923Z,4
2017-04-23T13:55:39.269Z,0
2017-04-23T13:56:49.596Z,0
2017-04-23T13:57:59.971Z,4
2017-04-23T13:59:10.022Z,0
2017-04-23T14:00:20.350Z,4
2017-04-23T14:01:30.770Z,0
2017-04-23T14:02:41.207Z,4
2017-04-23T14:03:51.681Z,4
2017-04-23T14:05:01.819Z,4
2017-04-23T14:06:11.644Z,4
2017-04-23T14:07:21.446Z,0
2017-04-23T14:08:31.777Z,4
2017-04-23T14:09:41.927Z,4
2017-04-23T14:10:53.485Z,4
2017-04-23T14:12:05.144Z,4
2017-04-23T14:13:15.950Z,8
2017-04-23T14:14:27.595Z,4
2017-04-23T14:15:38.484Z,8
2017-04-23T14:16:48.893Z,8
2017-04-23T14:18:00.071Z,8
2017-04-23T14:19:10.273Z,12
2017-04-23T14:20:21.130Z,16
2017-04-23T14:21:31.426Z,24
2017-04-23T14:22:41.248Z,16
2017-04-23T14:23:51.362Z,12
2017-04-23T14:25:01.358Z,8
2017-04-23T14:26:11.403Z,12
2017-04-23T14:27:21.153Z,12
2017-04-23T14:28:30.852Z,16
2017-04-23T14:29:40.612Z,20
2017-04-23T14:30:51.003Z,16
2017-04-23T14:32:01.029Z,20
2017-04-23T14:33:11.353Z,28
2017-04-23T14:34:21.678Z,12
2017-04-23T14:35:31.957Z,12
2017-04-23T14:36:42.253Z,8
2017-04-23T14:37:52.519Z,8
2017-04-23T14:39:02.509Z,8
2017-04-23T14:40:12.804Z,4
2017-04-23T14:41:22.768Z,4
2017-04-23T14:42:32.739Z,4
2017-04-23T14:43:42.378Z,4
2017-04-23T14:44:52.665Z,4
2017-04-23T14:46:02.946Z,4
2017-04-23T14:47:13.207Z,0
2017-04-23T14:48:23.457Z,4
2017-04-23T14:49:33.412Z,4
2017-04-23T14:50:43.402Z,4
2017-04-23T14:51:53.689Z,12
2017-04-23T14:53:03.941Z,12
2017-04-23T14:54:13.590Z,12
2017-04-23T14:55:23.847Z,20
2017-04-23T14:56:33.806Z,20
2017-04-23T14:57:43.770Z,20
2017-04-23T14:58:54.027Z,20
2017-04-23T15:00:04.003Z,20
2017-04-23T15:01:13.628Z,16
2017-04-23T15:02:23.883Z,20
2017-04-23T15:03:33.860Z,20
2017-04-23T15:04:43.821Z,16
2017-04-23T15:05:53.767Z,16
2017-04-23T15:07:04.020Z,16
2017-04-23T15:08:13.670Z,8
2017-04-23T15:09:23.943Z,4
2017-04-23T15:10:33.891Z,4
2017-04-23T15:11:44.147Z,8
2017-04-23T15:12:54.413Z,4
2017-04-23T15:14:04.364Z,4
2017-04-23T15:15:14.007Z,8
2017-04-23T15:16:23.944Z,4
2017-04-23T15:17:34.186Z,4
2017-04-23T15:18:44.141Z,8
2017-04-23T15:19:54.205Z,8
2017-04-23T15:21:04.467Z,4
2017-04-23T15:22:14.417Z,4
2017-04-23T15:23:24.365Z,4
2017-04-23T15:24:34.030Z,8
2017-04-23T15:25:43.974Z,8
2017-04-23T15:26:53.924Z,8
2017-04-23T15:28:03.858Z,16
2017-04-23T15:29:14.108Z,8
2017-04-23T15:30:24.362Z,12
2017-04-23T15:31:34.606Z,12
2017-04-23T15:32:44.848Z,16
2017-04-23T15:33:54.781Z,12
2017-04-23T15:35:04.718Z,8
2017-04-23T15:36:14.954Z,8
2017-04-23T15:37:24.882Z,12
2017-04-23T15:38:35.134Z,8
2017-04-23T15:39:45.147Z,8
2017-04-23T15:40:55.087Z,12
2017-04-23T15:42:05.337Z,12
2017-04-23T15:43:15.264Z,16
2017-04-23T15:44:25.233Z,16
2017-04-23T15:45:35.505Z,8
2017-04-23T15:46:45.639Z,4
2017-04-23T15:47:56.686Z,4
2017-04-23T15:49:07.920Z,4
2017-04-23T15:50:19.047Z,4
2017-04-23T15:51:30.253Z,12
2017-04-23T15:52:41.391Z,4
2017-04-23T15:53:52.182Z,4
2017-04-23T15:55:03.070Z,8
2017-04-23T15:56:14.240Z,12
2017-04-23T15:57:24.985Z,12
2017-04-23T15:58:36.167Z,8
2017-04-23T15:59:47.269Z,8
2017-04-23T16:00:58.477Z,4
2017-04-23T16:02:09.232Z,8
2017-04-23T16:03:19.953Z,12
2017-04-23T16:04:31.025Z,4
2017-04-23T16:05:42.137Z,4
2017-04-23T16:06:52.979Z,4
2017-04-23T16:08:04.163Z,4
2017-04-23T16:09:14.888Z,8
2017-04-23T16:10:26.063Z,4
2017-04-23T16:11:37.184Z,8
2017-04-23T16:12:47.684Z,4
2017-04-23T16:13:58.482Z,4
2017-04-23T16:15:08.517Z,8
2017-04-23T16:16:19.681Z,4
2017-04-23T16:17:30.857Z,4
2017-04-23T16:18:42.173Z,4
2017-04-23T16:19:52.991Z,8
2017-04-23T16:21:04.155Z,4
2017-04-23T16:22:15.323Z,4
2017-04-23T16:23:25.768Z,8
2017-04-23T16:24:36.670Z,8
2017-04-23T16:25:47.122Z,8
2017-04-23T16:26:58.263Z,4
2017-04-23T16:28:09.061Z,4
2017-04-23T16:29:19.620Z,4
2017-04-23T16:30:30.205Z,4
2017-04-23T16:31:40.828Z,4
2017-04-23T16:32:50.989Z,4
2017-04-23T16:34:00.607Z,4
2017-04-23T16:35:11.207Z,8
2017-04-23T16:36:21.639Z,0
2017-04-23T16:37:31.982Z,4
2017-04-23T16:38:41.968Z,4
2017-04-23T16:39:52.244Z,4
2017-04-23T16:41:02.179Z,4
2017-04-23T16:42:12.418Z,4
2017-04-23T16:43:22.354Z,4
2017-04-23T16:44:32.612Z,4
2017-04-23T16:45:42.564Z,4
2017-04-23T16:46:52.215Z,4
2017-04-23T16:48:02.458Z,4
2017-04-23T16:49:12.387Z,0
2017-04-23T16:50:22.637Z,4
2017-04-23T16:51:32.569Z,0
2017-04-23T16:52:42.505Z,4
2017-04-23T16:53:52.122Z,0
2017-04-23T16:55:02.363Z,4
2017-04-23T16:56:11.980Z,4
2017-04-23T16:57:21.597Z,4
2017-04-23T16:58:31.835Z,0
2017-04-23T16:59:41.759Z,0
2017-04-23T17:00:51.690Z,4
2017-04-23T17:02:01.302Z,4
2017-04-23T17:03:11.547Z,4
2017-04-23T17:04:21.790Z,0
2017-04-23T17:05:32.033Z,0
2017-04-23T17:06:42.276Z,4
2017-04-23T17:07:51.903Z,0